createdAt,value
2018-09-20T00:00:30.482Z,0
2018-09-20T00:01:02.561Z,0
2018-09-20T00:01:34.623Z,0
2018-09-20T00:02:06.652Z,0
2018-09-20T00:02:38.678Z,0
2018-09-20T00:03:10.729Z,0
2018-09-20T00:03:42.753Z,0
2018-09-20T00:04:14.809Z,0
2018-09-20T00:04:46.845Z,0
2018-09-20T00:05:18.917Z,0
2018-09-20T00:05:51.090Z,0
2018-09-20T00:06:23.130Z,0
2018-09-20T00:06:55.204Z,0
2018-09-20T00:07:27.275Z,0
2018-09-20T00:07:59.290Z,0
2018-09-20T00:08:31.394Z,0
2018-09-20T00:09:03.495Z,0
2018-09-20T00:09:35.537Z,0
2018-09-20T00:10:07.586Z,0
2018-09-20T00:10:39.679Z,0
2018-09-20T00:11:11.758Z,0
2018-09-20T00:11:43.898Z,0
2018-09-20T00:12:15.964Z,0
2018-09-20T00:12:48.065Z,0
2018-09-20T00:13:20.119Z,0
2018-09-20T00:13:52.198Z,0
2018-09-20T00:14:24.248Z,0
2018-09-20T00:14:56.252Z,0
2018-09-20T00:15:28.316Z,0
2018-09-20T00:16:00.406Z,0
2018-09-20T00:16:32.399Z,0
2018-09-20T00:17:04.500Z,0
2018-09-20T00:17:36.545Z,0
2018-09-20T00:18:08.587Z,0
2018-09-20T00:18:40.715Z,0
2018-09-20T00:19:12.778Z,0
2018-09-20T00:19:44.886Z,0
2018-09-20T00:20:16.980Z,0
2018-09-20T00:20:49.035Z,0
2018-09-20T00:21:21.094Z,0
2018-09-20T00:21:53.167Z,0
2018-09-20T00:22:25.231Z,0
2018-09-20T00:22:57.315Z,0
2018-09-20T00:23:29.409Z,0
2018-09-20T00:24:01.506Z,0
2018-09-20T00:24:33.649Z,0
2018-09-20T00:25:05.734Z,0
2018-09-20T00:25:37.847Z,0
2018-09-20T00:26:09.875Z,0
2018-09-20T00:26:41.917Z,0
2018-09-20T00:27:13.967Z,0
2018-09-20T00:27:46.009Z,0
2018-09-20T00:28:18.078Z,0
2018-09-20T00:28:50.136Z,0
2018-09-20T00:29:22.190Z,0
2018-09-20T00:29:54.236Z,0
2018-09-20T00:30:26.276Z,0
2018-09-20T00:30:58.331Z,0
2018-09-20T00:31:30.412Z,0
2018-09-20T00:32:02.420Z,0
2018-09-20T00:32:34.460Z,0
2018-09-20T00:33:06.522Z,0
2018-09-20T00:33:38.542Z,0
2018-09-20T00:34:10.603Z,0
2018-09-20T00:34:42.709Z,0
2018-09-20T00:35:14.763Z,0
2018-09-20T00:35:46.782Z,0
2018-09-20T00:36:18.891Z,0
2018-09-20T00:36:51.023Z,0
2018-09-20T00:37:23.226Z,0
2018-09-20T00:37:55.336Z,0
2018-09-20T00:38:27.472Z,0
2018-09-20T00:38:59.547Z,0
2018-09-20T00:39:31.623Z,0
2018-09-20T00:40:03.667Z,0
2018-09-20T00:40:35.775Z,0
2018-09-20T00:41:07.841Z,0
2018-09-20T00:41:39.851Z,0
2018-09-20T00:42:11.935Z,0
2018-09-20T00:42:44.002Z,0
2018-09-20T00:43:16.083Z,0
2018-09-20T00:43:48.103Z,0
2018-09-20T00:44:20.181Z,0
2018-09-20T00:44:52.185Z,0
2018-09-20T00:45:24.239Z,0
2018-09-20T00:45:56.312Z,0
2018-09-20T00:46:28.343Z,0
2018-09-20T00:47:00.391Z,0
2018-09-20T00:47:32.511Z,0
2018-09-20T00:48:04.608Z,0
2018-09-20T00:48:36.657Z,0
2018-09-20T00:49:08.732Z,0
2018-09-20T00:49:40.786Z,0
2018-09-20T00:50:12.853Z,0
2018-09-20T00:50:44.913Z,0
2018-09-20T00:51:16.992Z,0
2018-09-20T00:51:49.060Z,0
2018-09-20T00:52:21.139Z,0
2018-09-20T00:52:53.246Z,0
2018-09-20T00:53:25.297Z,0
2018-09-20T00:53:57.435Z,0
2018-09-20T00:54:29.957Z,0
2018-09-20T00:55:02.072Z,0
2018-09-20T00:55:34.110Z,0
2018-09-20T00:56:06.183Z,0
2018-09-20T00:56:38.257Z,0
2018-09-20T00:57:10.286Z,0
2018-09-20T00:57:42.357Z,0
2018-09-20T00:58:14.501Z,0
2018-09-20T00:58:46.482Z,0
2018-09-20T00:59:18.534Z,0
2018-09-20T00:59:50.636Z,0
2018-09-20T01:00:22.816Z,0
2018-09-20T01:00:54.842Z,0
2018-09-20T01:01:26.879Z,0
2018-09-20T01:01:58.921Z,0
2018-09-20T01:02:31.020Z,0
2018-09-20T01:03:03.147Z,0
2018-09-20T01:03:35.205Z,0
2018-09-20T01:04:07.292Z,0
2018-09-20T01:04:39.388Z,0
2018-09-20T01:05:11.474Z,0
2018-09-20T01:05:43.532Z,0
2018-09-20T01:06:15.604Z,0
2018-09-20T01:06:47.686Z,0
2018-09-20T01:07:19.756Z,0
2018-09-20T01:07:51.842Z,0
2018-09-20T01:08:23.901Z,0
2018-09-20T01:08:55.916Z,0
2018-09-20T01:09:27.951Z,0
2018-09-20T01:10:00.031Z,0
2018-09-20T01:10:32.102Z,0
2018-09-20T01:11:04.182Z,0
2018-09-20T01:11:36.352Z,0
2018-09-20T01:12:08.464Z,0
2018-09-20T01:12:40.547Z,0
2018-09-20T01:13:12.587Z,0
2018-09-20T01:13:44.668Z,0
2018-09-20T01:14:16.693Z,0
2018-09-20T01:14:48.718Z,0
2018-09-20T01:15:20.786Z,0
2018-09-20T01:15:52.851Z,0
2018-09-20T01:16:24.892Z,0
2018-09-20T01:16:56.979Z,0
2018-09-20T01:17:29.057Z,0
2018-09-20T01:18:01.131Z,0
2018-09-20T01:18:33.203Z,0
2018-09-20T01:19:05.298Z,0
2018-09-20T01:19:37.460Z,0
2018-09-20T01:20:09.594Z,0
2018-09-20T01:20:41.623Z,0
2018-09-20T01:21:13.691Z,0
2018-09-20T01:21:45.773Z,0
2018-09-20T01:22:17.792Z,0
2018-09-20T01:22:49.860Z,0
2018-09-20T01:23:21.915Z,0
2018-09-20T01:23:53.966Z,0
2018-09-20T01:24:26.135Z,0
2018-09-20T01:24:58.237Z,0
2018-09-20T01:25:30.289Z,0
2018-09-20T01:26:02.372Z,0
2018-09-20T01:26:34.451Z,0
2018-09-20T01:27:06.532Z,0
2018-09-20T01:27:38.585Z,0
2018-09-20T01:28:10.658Z,0
2018-09-20T01:28:42.708Z,0
2018-09-20T01:29:14.746Z,0
2018-09-20T01:29:46.829Z,0
2018-09-20T01:30:18.929Z,0
2018-09-20T01:30:51.005Z,0
2018-09-20T01:31:23.154Z,0
2018-09-20T01:31:55.223Z,0
2018-09-20T01:32:27.274Z,0
2018-09-20T01:32:59.337Z,0
2018-09-20T01:33:31.363Z,0
2018-09-20T01:34:03.542Z,0
2018-09-20T01:34:35.687Z,0
2018-09-20T01:35:07.732Z,0
2018-09-20T01:35:39.809Z,0
2018-09-20T01:36:11.856Z,0
2018-09-20T01:36:43.945Z,0
2018-09-20T01:37:16.005Z,0
2018-09-20T01:37:48.157Z,0
2018-09-20T01:38:20.316Z,0
2018-09-20T01:38:52.380Z,0
2018-09-20T01:39:24.509Z,0
2018-09-20T01:39:56.573Z,0
2018-09-20T01:40:28.638Z,0
2018-09-20T01:41:00.694Z,0
2018-09-20T01:41:32.849Z,0
2018-09-20T01:42:04.868Z,0
2018-09-20T01:42:36.936Z,0
2018-09-20T01:43:09.003Z,0
2018-09-20T01:43:41.068Z,0
2018-09-20T01:44:13.147Z,0
2018-09-20T01:44:45.228Z,0
2018-09-20T01:45:17.275Z,0
2018-09-20T01:45:49.345Z,0
2018-09-20T01:46:21.448Z,0
2018-09-20T01:46:53.513Z,0
2018-09-20T01:47:25.594Z,0
2018-09-20T01:47:57.624Z,0
2018-09-20T01:48:29.651Z,0
2018-09-20T01:49:02.517Z,0
2018-09-20T01:49:34.659Z,0
2018-09-20T01:50:06.679Z,0
2018-09-20T01:50:38.766Z,0
2018-09-20T01:51:10.846Z,0
2018-09-20T01:51:42.888Z,0
2018-09-20T01:52:15.114Z,0
2018-09-20T01:52:47.217Z,0
2018-09-20T01:53:19.237Z,0
2018-09-20T01:53:51.349Z,0
2018-09-20T01:54:23.439Z,0
2018-09-20T01:54:55.500Z,0
2018-09-20T01:55:27.536Z,0
2018-09-20T01:55:59.554Z,0
2018-09-20T01:56:31.638Z,0
2018-09-20T01:57:03.701Z,0
2018-09-20T01:57:35.719Z,0
2018-09-20T01:58:07.790Z,0
2018-09-20T01:58:39.853Z,0
2018-09-20T01:59:11.975Z,0
2018-09-20T01:59:44.025Z,0
2018-09-20T02:00:16.066Z,0
2018-09-20T02:00:48.252Z,0
2018-09-20T02:01:20.314Z,0
2018-09-20T02:01:52.380Z,0
2018-09-20T02:02:24.444Z,0
2018-09-20T02:02:56.504Z,0
2018-09-20T02:03:28.556Z,0
2018-09-20T02:04:00.757Z,0
2018-09-20T02:04:32.798Z,0
2018-09-20T02:05:04.840Z,0
2018-09-20T02:05:36.930Z,0
2018-09-20T02:06:09.000Z,0
2018-09-20T02:06:41.135Z,0
2018-09-20T02:07:13.317Z,0
2018-09-20T02:07:45.381Z,0
2018-09-20T02:08:17.447Z,0
2018-09-20T02:08:49.500Z,0
2018-09-20T02:09:21.554Z,0
2018-09-20T02:09:53.597Z,0
2018-09-20T02:10:25.648Z,0
2018-09-20T02:10:57.693Z,0
2018-09-20T02:11:29.766Z,0
2018-09-20T02:12:01.836Z,0
2018-09-20T02:12:34.024Z,0
2018-09-20T02:13:06.106Z,0
2018-09-20T02:13:38.135Z,0
2018-09-20T02:14:10.205Z,0
2018-09-20T02:14:42.299Z,0
2018-09-20T02:15:14.379Z,0
2018-09-20T02:15:46.466Z,0
2018-09-20T02:16:18.473Z,0
2018-09-20T02:16:50.522Z,0
2018-09-20T02:17:22.600Z,0
2018-09-20T02:17:54.674Z,0
2018-09-20T02:18:26.744Z,0
2018-09-20T02:18:58.777Z,0
2018-09-20T02:19:30.821Z,0
2018-09-20T02:20:02.898Z,0
2018-09-20T02:20:35.035Z,0
2018-09-20T02:21:07.140Z,0
2018-09-20T02:21:39.165Z,0
2018-09-20T02:22:11.223Z,0
2018-09-20T02:22:43.311Z,0
2018-09-20T02:23:15.371Z,0
2018-09-20T02:23:47.511Z,0
2018-09-20T02:24:19.678Z,0
2018-09-20T02:24:51.764Z,0
2018-09-20T02:25:23.830Z,0
2018-09-20T02:25:55.841Z,0
2018-09-20T02:26:27.882Z,0
2018-09-20T02:26:59.946Z,0
2018-09-20T02:27:32.008Z,0
2018-09-20T02:28:04.019Z,0
2018-09-20T02:28:36.095Z,0
2018-09-20T02:29:08.187Z,0
2018-09-20T02:29:40.393Z,0
2018-09-20T02:30:13.384Z,0
2018-09-20T02:30:45.462Z,0
2018-09-20T02:31:17.524Z,0
2018-09-20T02:31:49.537Z,0
2018-09-20T02:32:21.610Z,0
2018-09-20T02:32:53.614Z,0
2018-09-20T02:33:25.673Z,0
2018-09-20T02:33:57.829Z,0
2018-09-20T02:34:29.942Z,0
2018-09-20T02:35:01.972Z,0
2018-09-20T02:35:34.024Z,0
2018-09-20T02:36:06.114Z,0
2018-09-20T02:36:38.186Z,0
2018-09-20T02:37:10.252Z,0
2018-09-20T02:37:42.333Z,0
2018-09-20T02:38:14.429Z,0
2018-09-20T02:38:46.536Z,0
2018-09-20T02:39:18.630Z,0
2018-09-20T02:39:50.712Z,0
2018-09-20T02:40:22.770Z,0
2018-09-20T02:40:54.884Z,0
2018-09-20T02:41:26.947Z,0
2018-09-20T02:41:59.014Z,0
2018-09-20T02:42:31.084Z,0
2018-09-20T02:43:03.234Z,0
2018-09-20T02:43:35.308Z,0
2018-09-20T02:44:07.364Z,0
2018-09-20T02:44:39.438Z,0
2018-09-20T02:45:11.501Z,0
2018-09-20T02:45:43.579Z,0
2018-09-20T02:46:15.656Z,0
2018-09-20T02:46:47.697Z,0
2018-09-20T02:47:19.747Z,0
2018-09-20T02:47:51.808Z,0
2018-09-20T02:48:23.866Z,0
2018-09-20T02:48:55.925Z,0
2018-09-20T02:49:28.023Z,0
2018-09-20T02:50:00.075Z,0
2018-09-20T02:50:32.149Z,0
2018-09-20T02:51:04.213Z,0
2018-09-20T02:51:36.302Z,0
2018-09-20T02:52:08.366Z,0
2018-09-20T02:52:40.416Z,0
2018-09-20T02:53:12.437Z,0
2018-09-20T02:53:44.597Z,0
2018-09-20T02:54:16.747Z,0
2018-09-20T02:54:48.829Z,0
2018-09-20T02:55:20.916Z,0
2018-09-20T02:55:52.992Z,0
2018-09-20T02:56:25.089Z,0
2018-09-20T02:56:57.116Z,0
2018-09-20T02:57:29.270Z,0
2018-09-20T02:58:01.333Z,0
2018-09-20T02:58:33.395Z,0
2018-09-20T02:59:05.497Z,0
2018-09-20T02:59:37.545Z,0
2018-09-20T03:00:09.650Z,0
2018-09-20T03:00:41.746Z,0
2018-09-20T03:01:13.808Z,0
2018-09-20T03:01:45.853Z,0
2018-09-20T03:02:17.925Z,0
2018-09-20T03:02:49.973Z,0
2018-09-20T03:03:22.027Z,0
2018-09-20T03:03:54.128Z,0
2018-09-20T03:04:26.197Z,0
2018-09-20T03:04:58.237Z,0
2018-09-20T03:05:30.256Z,0
2018-09-20T03:06:02.337Z,0
2018-09-20T03:06:34.354Z,0
2018-09-20T03:07:06.501Z,0
2018-09-20T03:07:38.592Z,0
2018-09-20T03:08:11.194Z,0
2018-09-20T03:08:43.241Z,0
2018-09-20T03:09:15.343Z,0
2018-09-20T03:09:47.382Z,0
2018-09-20T03:10:19.451Z,0
2018-09-20T03:10:51.534Z,0
2018-09-20T03:11:23.621Z,0
2018-09-20T03:11:55.634Z,0
2018-09-20T03:12:27.688Z,0
2018-09-20T03:12:59.705Z,0
2018-09-20T03:13:31.744Z,0
2018-09-20T03:14:03.803Z,0
2018-09-20T03:14:35.816Z,0
2018-09-20T03:15:07.875Z,0
2018-09-20T03:15:39.929Z,0
2018-09-20T03:16:11.994Z,0
2018-09-20T03:16:44.045Z,0
2018-09-20T03:17:16.089Z,0
2018-09-20T03:17:48.212Z,0
2018-09-20T03:18:20.294Z,0
2018-09-20T03:18:52.371Z,0
2018-09-20T03:19:24.404Z,0
2018-09-20T03:19:56.465Z,0
2018-09-20T03:20:28.520Z,0
2018-09-20T03:21:00.599Z,0
2018-09-20T03:21:32.651Z,0
2018-09-20T03:22:04.722Z,0
2018-09-20T03:22:36.794Z,0
2018-09-20T03:23:08.886Z,0
2018-09-20T03:23:41.102Z,0
2018-09-20T03:24:13.150Z,0
2018-09-20T03:24:45.197Z,0
2018-09-20T03:25:17.264Z,0
2018-09-20T03:25:49.350Z,0
2018-09-20T03:26:21.490Z,0
2018-09-20T03:26:53.728Z,0
2018-09-20T03:27:25.802Z,0
2018-09-20T03:27:57.861Z,0
2018-09-20T03:28:29.902Z,0
2018-09-20T03:29:01.938Z,0
2018-09-20T03:29:33.982Z,0
2018-09-20T03:30:06.031Z,0
2018-09-20T03:30:38.177Z,0
2018-09-20T03:31:10.195Z,0
2018-09-20T03:31:42.261Z,0
2018-09-20T03:32:14.359Z,0
2018-09-20T03:32:46.518Z,0
2018-09-20T03:33:18.609Z,0
2018-09-20T03:33:50.703Z,0
2018-09-20T03:34:22.854Z,0
2018-09-20T03:34:54.927Z,0
2018-09-20T03:35:26.971Z,0
2018-09-20T03:35:59.056Z,0
2018-09-20T03:36:31.097Z,0
2018-09-20T03:37:03.153Z,0
2018-09-20T03:37:35.228Z,0
2018-09-20T03:38:07.281Z,0
2018-09-20T03:38:39.329Z,0
2018-09-20T03:39:11.411Z,0
2018-09-20T03:39:44.047Z,0
2018-09-20T03:40:16.114Z,0
2018-09-20T03:40:48.265Z,0
2018-09-20T03:41:20.314Z,0
2018-09-20T03:41:52.391Z,0
2018-09-20T03:42:24.447Z,0
2018-09-20T03:42:56.480Z,0
2018-09-20T03:43:28.510Z,0
2018-09-20T03:44:00.591Z,0
2018-09-20T03:44:32.674Z,0
2018-09-20T03:45:04.750Z,0
2018-09-20T03:45:36.842Z,0
2018-09-20T03:46:08.920Z,0
2018-09-20T03:46:40.983Z,0
2018-09-20T03:47:13.031Z,0
2018-09-20T03:47:45.092Z,0
2018-09-20T03:48:17.173Z,0
2018-09-20T03:48:49.208Z,0
2018-09-20T03:49:21.196Z,0
2018-09-20T03:49:53.267Z,0
2018-09-20T03:50:25.354Z,0
2018-09-20T03:50:57.431Z,0
2018-09-20T03:51:29.499Z,0
2018-09-20T03:52:01.555Z,0
2018-09-20T03:52:33.711Z,0
2018-09-20T03:53:05.776Z,0
2018-09-20T03:53:37.856Z,0
2018-09-20T03:54:09.848Z,0
2018-09-20T03:54:41.894Z,0
2018-09-20T03:55:13.920Z,0
2018-09-20T03:55:45.994Z,0
2018-09-20T03:56:18.114Z,0
2018-09-20T03:56:50.194Z,0
2018-09-20T03:57:22.203Z,0
2018-09-20T03:57:54.271Z,0
2018-09-20T03:58:26.329Z,0
2018-09-20T03:58:58.442Z,0
2018-09-20T03:59:30.497Z,0
2018-09-20T04:00:02.577Z,0
2018-09-20T04:00:34.665Z,0
2018-09-20T04:01:06.844Z,0
2018-09-20T04:01:38.918Z,0
2018-09-20T04:02:10.998Z,0
2018-09-20T04:02:43.073Z,0
2018-09-20T04:03:15.130Z,0
2018-09-20T04:03:47.247Z,0
2018-09-20T04:04:19.304Z,0
2018-09-20T04:04:51.377Z,0
2018-09-20T04:05:23.450Z,0
2018-09-20T04:05:55.495Z,0
2018-09-20T04:06:27.539Z,0
2018-09-20T04:06:59.713Z,0
2018-09-20T04:07:31.757Z,0
2018-09-20T04:08:03.848Z,0
2018-09-20T04:08:35.946Z,0
2018-09-20T04:09:07.996Z,0
2018-09-20T04:09:40.281Z,0
2018-09-20T04:10:12.380Z,0
2018-09-20T04:10:44.415Z,0
2018-09-20T04:11:16.435Z,0
2018-09-20T04:11:48.485Z,0
2018-09-20T04:12:20.540Z,0
2018-09-20T04:12:52.613Z,0
2018-09-20T04:13:24.678Z,0
2018-09-20T04:13:56.820Z,0
2018-09-20T04:14:28.992Z,0
2018-09-20T04:15:01.166Z,0
2018-09-20T04:15:33.234Z,0
2018-09-20T04:16:05.281Z,0
2018-09-20T04:16:37.336Z,0
2018-09-20T04:17:09.340Z,0
2018-09-20T04:17:41.448Z,0
2018-09-20T04:18:13.487Z,0
2018-09-20T04:18:45.574Z,0
2018-09-20T04:19:17.635Z,0
2018-09-20T04:19:49.697Z,0
2018-09-20T04:20:21.761Z,0
2018-09-20T04:20:53.848Z,0
2018-09-20T04:21:25.919Z,0
2018-09-20T04:21:57.972Z,0
2018-09-20T04:22:30.062Z,0
2018-09-20T04:23:02.110Z,0
2018-09-20T04:23:34.154Z,0
2018-09-20T04:24:06.241Z,0
2018-09-20T04:24:38.297Z,0
2018-09-20T04:25:10.358Z,0
2018-09-20T04:25:42.486Z,0
2018-09-20T04:26:14.533Z,0
2018-09-20T04:26:46.581Z,0
2018-09-20T04:27:18.626Z,0
2018-09-20T04:27:50.641Z,0
2018-09-20T04:28:22.710Z,0
2018-09-20T04:28:54.785Z,0
2018-09-20T04:29:26.874Z,0
2018-09-20T04:29:58.949Z,0
2018-09-20T04:30:30.974Z,0
2018-09-20T04:31:03.023Z,0
2018-09-20T04:31:35.247Z,0
2018-09-20T04:32:07.255Z,0
2018-09-20T04:32:39.339Z,0
2018-09-20T04:33:11.422Z,0
2018-09-20T04:33:43.565Z,0
2018-09-20T04:34:15.585Z,0
2018-09-20T04:34:47.602Z,0
2018-09-20T04:35:19.746Z,0
2018-09-20T04:35:51.835Z,0
2018-09-20T04:36:23.883Z,0
2018-09-20T04:36:56.035Z,0
2018-09-20T04:37:28.074Z,0
2018-09-20T04:38:00.150Z,0
2018-09-20T04:38:32.237Z,0
2018-09-20T04:39:04.312Z,0
2018-09-20T04:39:36.365Z,0
2018-09-20T04:40:08.416Z,0
2018-09-20T04:40:40.452Z,0
2018-09-20T04:41:12.538Z,0
2018-09-20T04:41:44.600Z,0
2018-09-20T04:42:16.601Z,0
2018-09-20T04:42:48.647Z,0
2018-09-20T04:43:20.697Z,0
2018-09-20T04:43:52.815Z,0
2018-09-20T04:44:24.785Z,0
2018-09-20T04:44:56.812Z,0
2018-09-20T04:45:28.862Z,0
2018-09-20T04:46:00.875Z,0
2018-09-20T04:46:32.937Z,0
2018-09-20T04:47:04.958Z,0
2018-09-20T04:47:37.059Z,0
2018-09-20T04:48:09.203Z,0
2018-09-20T04:48:42.168Z,0
2018-09-20T04:49:14.212Z,0
2018-09-20T04:49:46.247Z,0
2018-09-20T04:50:18.264Z,0
2018-09-20T04:50:50.325Z,0
2018-09-20T04:51:22.549Z,0
2018-09-20T04:51:54.692Z,0
2018-09-20T04:52:26.753Z,0
2018-09-20T04:52:58.776Z,0
2018-09-20T04:53:30.945Z,0
2018-09-20T04:54:03.034Z,0
2018-09-20T04:54:35.102Z,0
2018-09-20T04:55:07.214Z,0
2018-09-20T04:55:39.329Z,0
2018-09-20T04:56:11.416Z,0
2018-09-20T04:56:43.612Z,0
2018-09-20T04:57:15.707Z,0
2018-09-20T04:57:47.770Z,0
2018-09-20T04:58:19.830Z,0
2018-09-20T04:58:51.847Z,0
2018-09-20T04:59:23.894Z,0
2018-09-20T04:59:56.267Z,0
2018-09-20T05:00:28.217Z,0
2018-09-20T05:01:00.333Z,0
2018-09-20T05:01:33.217Z,0
2018-09-20T05:02:05.255Z,0
2018-09-20T05:02:37.378Z,0
2018-09-20T05:03:09.424Z,0
2018-09-20T05:03:41.475Z,0
2018-09-20T05:04:13.546Z,0
2018-09-20T05:04:45.592Z,0
2018-09-20T05:05:17.641Z,0
2018-09-20T05:05:49.758Z,0
2018-09-20T05:06:21.814Z,0
2018-09-20T05:06:53.881Z,0
2018-09-20T05:07:25.938Z,0
2018-09-20T05:07:58.027Z,0
2018-09-20T05:08:30.094Z,0
2018-09-20T05:09:02.218Z,0
2018-09-20T05:09:34.358Z,0
2018-09-20T05:10:06.402Z,0
2018-09-20T05:10:38.460Z,0
2018-09-20T05:11:10.507Z,0
2018-09-20T05:11:42.579Z,0
2018-09-20T05:12:14.760Z,0
2018-09-20T05:12:46.806Z,0
2018-09-20T05:13:18.855Z,0
2018-09-20T05:13:50.923Z,0
2018-09-20T05:14:23.021Z,0
2018-09-20T05:14:55.086Z,0
2018-09-20T05:15:27.116Z,0
2018-09-20T05:15:59.183Z,5
2018-09-20T05:16:31.248Z,5
2018-09-20T05:17:03.396Z,5
2018-09-20T05:17:35.514Z,5
2018-09-20T05:18:07.537Z,5
2018-09-20T05:18:39.606Z,5
2018-09-20T05:19:11.801Z,5
2018-09-20T05:19:43.828Z,5
2018-09-20T05:20:16.041Z,5
2018-09-20T05:20:48.119Z,5
2018-09-20T05:21:20.222Z,5
2018-09-20T05:21:52.234Z,5
2018-09-20T05:22:24.320Z,5
2018-09-20T05:22:56.388Z,5
2018-09-20T05:23:28.581Z,5
2018-09-20T05:24:00.581Z,5
2018-09-20T05:24:32.619Z,5
2018-09-20T05:25:04.679Z,5
2018-09-20T05:25:36.733Z,5
2018-09-20T05:26:08.780Z,5
2018-09-20T05:26:40.850Z,5
2018-09-20T05:27:12.894Z,5
2018-09-20T05:27:45.705Z,5
2018-09-20T05:28:17.833Z,10
2018-09-20T05:28:49.914Z,10
2018-09-20T05:29:21.936Z,10
2018-09-20T05:29:54.047Z,10
2018-09-20T05:30:26.083Z,10
2018-09-20T05:30:58.121Z,10
2018-09-20T05:31:30.166Z,10
2018-09-20T05:32:02.988Z,10
2018-09-20T05:32:35.023Z,10
2018-09-20T05:33:07.212Z,10
2018-09-20T05:33:39.229Z,10
2018-09-20T05:34:11.295Z,10
2018-09-20T05:34:43.596Z,10
2018-09-20T05:35:15.726Z,10
2018-09-20T05:35:47.814Z,10
2018-09-20T05:36:19.847Z,10
2018-09-20T05:36:52.486Z,10
2018-09-20T05:37:24.468Z,10
2018-09-20T05:37:56.527Z,10
2018-09-20T05:38:28.521Z,10
2018-09-20T05:39:00.533Z,10
2018-09-20T05:39:32.541Z,10
2018-09-20T05:40:04.609Z,10
2018-09-20T05:40:36.718Z,10
2018-09-20T05:41:09.374Z,10
2018-09-20T05:41:41.429Z,10
2018-09-20T05:42:13.505Z,15
2018-09-20T05:42:45.664Z,15
2018-09-20T05:43:17.735Z,15
2018-09-20T05:43:49.772Z,15
2018-09-20T05:44:21.815Z,15
2018-09-20T05:44:53.878Z,15
2018-09-20T05:45:25.919Z,15
2018-09-20T05:45:58.078Z,15
2018-09-20T05:46:30.122Z,15
2018-09-20T05:47:02.226Z,15
2018-09-20T05:47:34.270Z,15
2018-09-20T05:48:06.294Z,15
2018-09-20T05:48:38.364Z,15
2018-09-20T05:49:10.394Z,15
2018-09-20T05:49:42.705Z,15
2018-09-20T05:50:14.758Z,15
2018-09-20T05:50:47.011Z,20
2018-09-20T05:51:19.080Z,20
2018-09-20T05:51:51.140Z,20
2018-09-20T05:52:23.193Z,20
2018-09-20T05:52:55.246Z,20
2018-09-20T05:53:27.296Z,20
2018-09-20T05:53:59.353Z,20
2018-09-20T05:54:31.404Z,20
2018-09-20T05:55:03.466Z,20
2018-09-20T05:55:35.532Z,20
2018-09-20T05:56:07.513Z,20
2018-09-20T05:56:39.596Z,20
2018-09-20T05:57:11.803Z,25
2018-09-20T05:57:43.980Z,25
2018-09-20T05:58:15.996Z,30
2018-09-20T05:58:48.082Z,35
2018-09-20T05:59:20.241Z,35
2018-09-20T05:59:52.309Z,40
2018-09-20T06:00:24.707Z,40
2018-09-20T06:00:56.858Z,40
2018-09-20T06:01:28.932Z,40
2018-09-20T06:02:01.026Z,40
2018-09-20T06:02:33.217Z,40
2018-09-20T06:03:05.311Z,40
2018-09-20T06:03:37.348Z,40
2018-09-20T06:04:09.416Z,45
2018-09-20T06:04:41.403Z,45
2018-09-20T06:05:13.444Z,45
2018-09-20T06:05:45.564Z,40
2018-09-20T06:06:17.572Z,40
2018-09-20T06:06:49.972Z,45
2018-09-20T06:07:22.004Z,45
2018-09-20T06:07:54.058Z,45
2018-09-20T06:08:26.094Z,45
2018-09-20T06:08:58.156Z,45
2018-09-20T06:09:30.211Z,45
2018-09-20T06:10:02.279Z,50
2018-09-20T06:10:34.340Z,50
2018-09-20T06:11:06.429Z,45
2018-09-20T06:11:38.611Z,45
2018-09-20T06:12:10.661Z,45
2018-09-20T06:12:42.701Z,45
2018-09-20T06:13:14.912Z,45
2018-09-20T06:13:47.041Z,45
2018-09-20T06:14:19.084Z,50
2018-09-20T06:14:51.148Z,50
2018-09-20T06:15:23.199Z,55
2018-09-20T06:15:55.216Z,55
2018-09-20T06:16:27.472Z,50
2018-09-20T06:16:59.504Z,50
2018-09-20T06:17:31.549Z,45
2018-09-20T06:18:03.680Z,45
2018-09-20T06:18:36.210Z,40
2018-09-20T06:19:08.343Z,40
2018-09-20T06:19:40.390Z,35
2018-09-20T06:20:12.606Z,35
2018-09-20T06:20:44.648Z,40
2018-09-20T06:21:16.688Z,40
2018-09-20T06:21:49.027Z,40
2018-09-20T06:22:21.246Z,45
2018-09-20T06:22:53.368Z,45
2018-09-20T06:23:25.551Z,45
2018-09-20T06:23:57.703Z,45
2018-09-20T06:24:29.757Z,50
2018-09-20T06:25:01.982Z,55
2018-09-20T06:25:34.308Z,60
2018-09-20T06:26:06.400Z,60
2018-09-20T06:26:38.441Z,65
2018-09-20T06:27:10.491Z,65
2018-09-20T06:27:42.609Z,70
2018-09-20T06:28:14.673Z,70
2018-09-20T06:28:46.729Z,70
2018-09-20T06:29:18.791Z,70
2018-09-20T06:29:50.979Z,70
2018-09-20T06:30:23.019Z,70
2018-09-20T06:30:55.066Z,70
2018-09-20T06:31:27.118Z,75
2018-09-20T06:31:59.130Z,75
2018-09-20T06:32:31.361Z,75
2018-09-20T06:33:03.439Z,75
2018-09-20T06:33:35.477Z,75
2018-09-20T06:34:07.618Z,75
2018-09-20T06:34:39.691Z,75
2018-09-20T06:35:11.777Z,75
2018-09-20T06:35:43.820Z,75
2018-09-20T06:36:16.737Z,75
2018-09-20T06:36:48.791Z,75
2018-09-20T06:37:20.853Z,75
2018-09-20T06:37:52.941Z,75
2018-09-20T06:38:25.010Z,75
2018-09-20T06:38:57.061Z,75
2018-09-20T06:39:29.190Z,80
2018-09-20T06:40:01.285Z,80
2018-09-20T06:40:34.199Z,80
2018-09-20T06:41:06.462Z,80
2018-09-20T06:41:38.524Z,80
2018-09-20T06:42:10.561Z,80
2018-09-20T06:42:42.650Z,80
2018-09-20T06:43:14.734Z,80
2018-09-20T06:43:46.897Z,80
2018-09-20T06:44:19.054Z,85
2018-09-20T06:44:51.106Z,85
2018-09-20T06:45:23.149Z,85
2018-09-20T06:45:55.261Z,85
2018-09-20T06:46:27.540Z,85
2018-09-20T06:46:59.743Z,85
2018-09-20T06:47:31.803Z,85
2018-09-20T06:48:03.999Z,85
2018-09-20T06:48:36.102Z,85
2018-09-20T06:49:08.235Z,85
2018-09-20T06:49:41.007Z,90
2018-09-20T06:50:13.141Z,90
2018-09-20T06:50:45.158Z,90
2018-09-20T06:51:17.445Z,90
2018-09-20T06:51:49.711Z,90
2018-09-20T06:52:21.791Z,90
2018-09-20T06:52:54.002Z,90
2018-09-20T06:53:26.258Z,90
2018-09-20T06:53:58.675Z,90
2018-09-20T06:54:30.897Z,90
2018-09-20T06:55:03.209Z,90
2018-09-20T06:55:35.348Z,90
2018-09-20T06:56:07.422Z,90
2018-09-20T06:56:39.829Z,90
2018-09-20T06:57:11.965Z,90
2018-09-20T06:57:44.863Z,90
2018-09-20T06:58:17.469Z,95
2018-09-20T06:58:49.791Z,95
2018-09-20T06:59:22.307Z,95
2018-09-20T06:59:54.846Z,95
2018-09-20T07:00:26.965Z,95
2018-09-20T07:00:59.032Z,95
2018-09-20T07:01:31.246Z,95
2018-09-20T07:02:03.960Z,90
2018-09-20T07:02:36.037Z,90
2018-09-20T07:03:08.352Z,85
2018-09-20T07:03:40.515Z,85
2018-09-20T07:04:12.845Z,80
2018-09-20T07:04:44.931Z,85
2018-09-20T07:05:17.033Z,85
2018-09-20T07:05:49.317Z,90
2018-09-20T07:06:22.549Z,85
2018-09-20T07:06:54.961Z,90
2018-09-20T07:07:27.246Z,90
2018-09-20T07:07:59.399Z,85
2018-09-20T07:08:31.579Z,85
2018-09-20T07:09:03.714Z,85
2018-09-20T07:09:35.851Z,90
2018-09-20T07:10:08.021Z,95
2018-09-20T07:10:40.079Z,95
2018-09-20T07:11:12.558Z,95
2018-09-20T07:11:45.495Z,95
2018-09-20T07:12:17.761Z,100
2018-09-20T07:12:50.240Z,100
2018-09-20T07:13:23.116Z,100
2018-09-20T07:13:55.138Z,100
2018-09-20T07:14:27.385Z,100
2018-09-20T07:15:00.465Z,100
2018-09-20T07:15:32.625Z,100
2018-09-20T07:16:04.752Z,100
2018-09-20T07:16:36.963Z,100
2018-09-20T07:17:09.210Z,95
2018-09-20T07:17:41.476Z,95
2018-09-20T07:18:13.735Z,100
2018-09-20T07:18:45.873Z,100
2018-09-20T07:19:18.577Z,100
2018-09-20T07:19:50.550Z,100
2018-09-20T07:20:22.602Z,100
2018-09-20T07:20:54.857Z,105
2018-09-20T07:21:26.936Z,105
2018-09-20T07:21:59.073Z,105
2018-09-20T07:22:31.506Z,105
2018-09-20T07:23:03.609Z,105
2018-09-20T07:23:35.899Z,110
2018-09-20T07:24:08.161Z,110
2018-09-20T07:24:40.327Z,110
2018-09-20T07:25:12.531Z,110
2018-09-20T07:25:44.735Z,110
2018-09-20T07:26:16.760Z,110
2018-09-20T07:26:48.883Z,110
2018-09-20T07:27:21.066Z,105
2018-09-20T07:27:53.119Z,110
2018-09-20T07:28:25.165Z,110
2018-09-20T07:28:57.226Z,105
2018-09-20T07:29:29.267Z,105
2018-09-20T07:30:01.367Z,105
2018-09-20T07:30:33.572Z,110
2018-09-20T07:31:05.661Z,110
2018-09-20T07:31:37.688Z,110
2018-09-20T07:32:09.784Z,110
2018-09-20T07:32:42.010Z,110
2018-09-20T07:33:14.225Z,110
2018-09-20T07:33:46.462Z,115
2018-09-20T07:34:18.500Z,115
2018-09-20T07:34:51.536Z,115
2018-09-20T07:35:23.727Z,115
2018-09-20T07:35:56.162Z,115
2018-09-20T07:36:28.377Z,110
2018-09-20T07:37:00.462Z,115
2018-09-20T07:37:32.781Z,115
2018-09-20T07:38:04.901Z,120
2018-09-20T07:38:36.958Z,120
2018-09-20T07:39:09.104Z,120
2018-09-20T07:39:41.168Z,125
2018-09-20T07:40:13.230Z,125
2018-09-20T07:40:45.366Z,125
2018-09-20T07:41:17.444Z,125
2018-09-20T07:41:49.491Z,125
2018-09-20T07:42:21.598Z,125
2018-09-20T07:42:53.720Z,125
2018-09-20T07:43:25.801Z,125
2018-09-20T07:43:57.966Z,125
2018-09-20T07:44:30.095Z,125
2018-09-20T07:45:02.273Z,125
2018-09-20T07:45:34.273Z,125
2018-09-20T07:46:06.319Z,125
2018-09-20T07:46:38.350Z,125
2018-09-20T07:47:10.431Z,125
2018-09-20T07:47:42.507Z,125
2018-09-20T07:48:14.560Z,120
2018-09-20T07:48:46.635Z,110